Time;durP1;ratioP1;P1;durP2;ratioP2;P2;SDS_P1;SDS_P2;PMS_P1;PMS_P2;Temp;Humidity;BMP_temperature;BMP_pressure;BME280_temperature;BME280_humidity;BME280_pressure;Samples;Min_cycle;Max_cycle;Signal;HPM_P1;HPM_P2
2023/12/13 12:11:20;;;;;;;24.50;13.20;;;;;;;7.22;100.00;99566.56;5079211;28;20876;-67
2023/12/13 12:13:45;;;;;;;;;;;;;;;7.26;100.00;99571.69;4956649;28;20086;-70
2023/12/13 12:16:11;;;;;;;23.55;12.57;;;;;;;7.21;100.00;99569.28;4966165;28;19957;-71
2023/12/13 12:18:41;;;;;;;23.23;12.50;;;;;;;7.16;100.00;99563.41;4959985;28;20035;-72
2023/12/13 12:21:10;;;;;;;21.35;12.35;;;;;;;7.19;100.00;99564.09;4954086;28;20094;-70
2023/12/13 12:23:39;;;;;;;26.80;13.07;;;;;;;7.20;100.00;99560.50;4954974;28;20054;-71
2023/12/13 12:26:08;;;;;;;24.48;12.25;;;;;;;7.18;100.00;99570.31;4957821;28;20035;-71
2023/12/13 12:28:35;;;;;;;23.27;12.57;;;;;;;7.19;100.00;99565.88;4965070;28;20121;-71
2023/12/13 12:31:00;;;;;;;20.42;12.82;;;;;;;7.20;100.00;99571.09;4943175;28;20510;-71
2023/12/13 12:33:25;;;;;;;20.60;13.27;;;;;;;7.19;100.00;99564.09;4969419;28;20034;-70
2023/12/13 12:35:51;;;;;;;28.27;13.90;;;;;;;7.20;100.00;99572.88;4954370;28;20530;-70
2023/12/13 12:38:16;;;;;;;24.02;13.02;;;;;;;7.21;100.00;99567.50;4964919;28;20034;-70
2023/12/13 12:40:42;;;;;;;26.38;13.30;;;;;;;7.26;100.00;99572.53;4963037;28;20134;-69
2023/12/13 12:43:08;;;;;;;27.88;15.20;;;;;;;7.28;100.00;99562.72;4963928;28;20074;-70
2023/12/13 12:45:33;;;;;;;22.98;14.32;;;;;;;7.29;100.00;99561.78;4955862;28;20480;-69
2023/12/13 12:47:59;;;;;;;21.15;14.20;;;;;;;7.36;100.00;99564.94;4949604;28;20034;-69
2023/12/13 12:50:24;;;;;;;25.48;14.52;;;;;;;7.34;100.00;99557.06;4958323;28;20051;-69
2023/12/13 12:52:50;;;;;;;25.88;14.30;;;;;;;7.36;100.00;99565.78;4963860;28;20489;-70
2023/12/13 12:55:15;;;;;;;25.60;14.63;;;;;;;7.41;100.00;99571.66;4957505;28;20042;-71
2023/12/13 12:57:40;;;;;;;24.50;15.35;;;;;;;7.39;100.00;99559.44;4949331;28;20039;-70
2023/12/13 13:00:06;;;;;;;29.60;15.80;;;;;;;7.27;100.00;99554.84;4957218;28;20405;-69
2023/12/13 13:02:32;;;;;;;27.42;15.50;;;;;;;7.37;100.00;99572.78;4945505;28;20497;-70
2023/12/13 13:04:57;;;;;;;30.83;17.35;;;;;;;7.37;100.00;99574.56;4946030;28;20043;-71
2023/12/13 13:07:23;;;;;;;24.23;15.80;;;;;;;7.33;100.00;99571.25;4962159;28;20588;-71
2023/12/13 13:09:48;;;;;;;28.73;16.67;;;;;;;7.29;100.00;99561.78;4955922;28;20041;-70
2023/12/13 13:12:14;;;;;;;24.30;15.68;;;;;;;7.32;100.00;99572.19;4963074;28;20052;-72
2023/12/13 13:14:39;;;;;;;32.30;17.52;;;;;;;7.35;100.00;99576.44;4962146;28;20050;-70
2023/12/13 13:17:05;;;;;;;26.35;16.55;;;;;;;7.26;100.00;99571.69;4983878;28;20068;-71
2023/12/13 13:19:30;;;;;;;24.35;16.02;;;;;;;7.33;100.00;99583.63;4986931;28;20089;-70
2023/12/13 13:21:56;;;;;;;30.42;15.75;;;;;;;7.30;100.00;99575.84;4970332;28;20054;-73
2023/12/13 13:24:22;;;;;;;28.88;15.80;;;;;;;7.28;100.00;99583.91;4964331;28;20500;-68
2023/12/13 13:26:47;;;;;;;27.75;15.90;;;;;;;7.30;100.00;99592.59;4965604;28;20030;-70
2023/12/13 13:29:13;;;;;;;23.23;13.27;;;;;;;7.20;100.00;99589.63;4963344;28;20383;-71
2023/12/13 13:31:39;;;;;;;19.88;13.13;;;;;;;7.15;100.00;99582.91;4962955;28;20070;-70
2023/12/13 13:34:04;;;;;;;21.70;13.13;;;;;;;7.11;100.00;99581.38;4963447;28;20040;-71
2023/12/13 13:36:29;;;;;;;17.23;11.90;;;;;;;7.13;100.00;99584.75;4976290;28;20081;-72
2023/12/13 13:38:55;;;;;;;19.08;12.23;;;;;;;7.11;100.00;99589.31;4966608;28;20042;-71
2023/12/13 13:41:21;;;;;;;21.50;12.63;;;;;;;7.13;100.00;99592.69;4965850;28;20329;-71
2023/12/13 13:43:47;;;;;;;20.52;13.10;;;;;;;7.15;100.00;99593.47;4982848;28;20042;-69
2023/12/13 13:46:13;;;;;;;21.92;13.35;;;;;;;7.20;100.00;99594.06;4970878;28;20040;-71
2023/12/13 13:48:38;;;;;;;18.58;12.50;;;;;;;7.14;100.00;99594.38;4964586;28;20145;-70
2023/12/13 13:51:04;;;;;;;20.95;12.38;;;;;;;7.19;100.00;99589.69;4961930;28;20046;-71
2023/12/13 13:53:29;;;;;;;17.45;12.75;;;;;;;7.14;100.00;99584.66;4964136;28;20053;-71
2023/12/13 13:55:58;;;;;;;21.00;12.73;;;;;;;7.21;100.00;99599.25;4950833;28;20519;-70
2023/12/13 13:58:23;;;;;;;19.15;12.70;;;;;;;7.21;100.00;99595.75;4970760;28;20042;-71
2023/12/13 14:00:49;;;;;;;23.60;13.73;;;;;;;7.23;100.00;99600.03;4965191;28;20112;-71
2023/12/13 14:03:15;;;;;;;21.70;13.57;;;;;;;7.20;100.00;99602.84;4964091;28;20038;-71
2023/12/13 14:05:40;;;;;;;18.88;13.43;;;;;;;7.24;100.00;99611.47;4964541;28;20051;-71
2023/12/13 14:08:09;;;;;;;21.90;14.90;;;;;;;7.27;100.00;99610.44;4974348;28;20038;-71
2023/12/13 14:10:35;;;;;;;24.20;16.02;;;;;;;7.29;100.00;99605.91;4977243;28;20043;-73
2023/12/13 14:13:00;;;;;;;27.90;15.98;;;;;;;7.33;100.00;99610.94;4977157;28;20587;-71
2023/12/13 14:15:26;;;;;;;24.38;16.10;;;;;;;7.30;100.00;99613.75;4969595;28;20042;-70
2023/12/13 14:17:51;;;;;;;27.27;16.02;;;;;;;7.33;100.00;99615.38;4970279;28;20042;-71
2023/12/13 14:20:17;;;;;;;22.90;14.52;;;;;;;7.29;100.00;99617.34;4993913;28;20856;-71
2023/12/13 14:22:42;;;;;;;25.65;14.15;;;;;;;7.17;100.00;99605.66;4965240;28;20093;-73
2023/12/13 14:25:08;;;;;;;22.60;13.90;;;;;;;7.23;100.00;99621.22;4974970;28;20092;-71
2023/12/13 14:27:34;;;;;;;20.30;12.95;;;;;;;7.21;100.00;99631.00;4973717;28;20054;-71
2023/12/13 14:29:59;;;;;;;23.15;13.43;;;;;;;7.20;100.00;99629.31;4973784;28;20031;-72
2023/12/13 14:32:25;;;;;;;22.50;13.73;;;;;;;7.17;100.00;99633.91;4963657;28;20052;-72
2023/12/13 14:34:51;;;;;;;21.30;13.25;;;;;;;7.13;100.00;99625.28;4969323;28;20050;-71
2023/12/13 14:37:16;;;;;;;25.65;14.98;;;;;;;7.19;100.00;99643.50;4984996;28;20038;-71
2023/12/13 14:39:42;;;;;;;23.00;14.07;;;;;;;7.14;100.00;99640.22;4963282;28;20478;-71
2023/12/13 14:42:07;;;;;;;26.27;14.38;;;;;;;7.18;100.00;99648.84;4970893;28;20041;-73
2023/12/13 14:44:33;;;;;;;26.98;15.40;;;;;;;7.16;100.00;99654.25;4986175;28;20489;-70
2023/12/13 14:46:58;;;;;;;25.95;16.17;;;;;;;7.18;100.00;99654.16;4969591;28;20078;-71
2023/12/13 14:49:24;;;;;;;29.58;16.02;;;;;;;7.17;100.00;99652.44;4971132;28;20060;-72
2023/12/13 14:51:54;;;;;;;18.92;14.75;;;;;;;7.18;100.00;99659.44;4984952;28;20026;-70
2023/12/13 14:54:20;;;;;;;20.10;13.27;;;;;;;7.03;100.00;99647.94;4969600;28;20071;-71
2023/12/13 14:56:45;;;;;;;20.73;12.80;;;;;;;7.10;100.00;99672.25;4982264;28;20499;-70
2023/12/13 14:59:10;;;;;;;20.48;13.40;;;;;;;7.07;100.00;99673.28;4985401;28;20064;-70
2023/12/13 15:01:36;;;;;;;22.60;13.80;;;;;;;7.06;100.00;99676.00;4973987;28;20072;-71
2023/12/13 15:04:02;;;;;;;18.60;14.02;;;;;;;7.09;100.00;99683.78;4969490;28;20066;-70
2023/12/13 15:06:32;;;;;;;22.23;14.18;;;;;;;7.11;100.00;99688.06;4979107;28;20400;-70
2023/12/13 15:08:57;;;;;;;21.02;12.73;;;;;;;7.06;100.00;99695.34;4966078;28;20156;-70
2023/12/13 15:11:22;;;;;;;21.48;13.07;;;;;;;7.06;100.00;99695.34;4972793;28;20712;-70
2023/12/13 15:13:48;;;;;;;21.77;13.27;;;;;;;7.05;100.00;99696.31;4976729;28;20038;-70
2023/12/13 15:16:13;;;;;;;20.98;13.20;;;;;;;7.05;100.00;99711.34;4972700;28;20776;-71
2023/12/13 15:18:39;;;;;;;21.58;14.18;;;;;;;7.02;100.00;99706.19;4981446;28;20574;-71
2023/12/13 15:21:04;;;;;;;21.27;13.18;;;;;;;7.01;100.00;99709.78;4965305;28;20383;-71
2023/12/13 15:23:30;;;;;;;22.15;13.32;;;;;;;6.96;100.00;99710.88;4983904;28;20042;-71
2023/12/13 15:25:55;;;;;;;19.08;12.88;;;;;;;6.94;100.00;99709.28;4966932;28;20551;-71
2023/12/13 15:28:20;;;;;;;22.33;12.93;;;;;;;6.97;100.00;99717.88;4963103;28;20512;-69
2023/12/13 15:30:46;;;;;;;20.50;13.70;;;;;;;6.95;100.00;99724.22;4969226;28;20038;-69
2023/12/13 15:33:11;;;;;;;22.55;14.45;;;;;;;6.95;100.00;99730.34;4968279;28;20050;-71
2023/12/13 15:35:38;;;;;;;25.25;14.57;;;;;;;6.94;100.00;99728.66;4965721;28;21008;-70
2023/12/13 15:38:03;;;;;;;22.42;14.82;;;;;;;6.93;100.00;99731.34;4962774;28;20046;-71
2023/12/13 15:40:28;;;;;;;34.78;22.75;;;;;;;6.95;100.00;99735.66;4965994;28;20049;-71
2023/12/13 15:42:54;;;;;;;29.45;20.33;;;;;;;6.92;100.00;99740.25;4971035;28;20045;-70
2023/12/13 15:45:19;;;;;;;35.45;20.88;;;;;;;6.92;100.00;99746.38;4967892;28;20043;-69
2023/12/13 15:47:45;;;;;;;33.40;19.23;;;;;;;6.77;100.00;99723.38;4973583;28;20038;-70
2023/12/13 15:50:10;;;;;;;28.98;18.40;;;;;;;6.90;100.00;99753.56;4968847;28;20128;-69
2023/12/13 15:52:41;;;;;;;31.02;20.25;;;;;;;6.91;100.00;99762.34;4967720;28;20035;-70
2023/12/13 15:55:07;;;;;;;27.48;18.60;;;;;;;6.87;100.00;99758.16;4969732;28;20034;-70
2023/12/13 15:57:34;;;;;;;26.83;18.58;;;;;;;6.81;100.00;99761.94;4971941;28;20053;-70
2023/12/13 15:59:59;;;;;;;35.22;20.17;;;;;;;6.86;100.00;99773.16;4968442;28;20065;-70
2023/12/13 16:02:24;;;;;;;33.28;20.55;;;;;;;6.80;100.00;99767.34;4978715;28;20077;-69
2023/12/13 16:04:50;;;;;;;42.33;25.40;;;;;;;6.86;100.00;99782.91;4968426;28;20043;-70
2023/12/13 16:07:15;;;;;;;56.65;31.38;;;;;;;6.87;100.00;99787.25;4969695;28;20048;-70
2023/12/13 16:09:41;;;;;;;52.28;29.33;;;;;;;6.82;100.00;99782.19;4983234;28;20038;-70
2023/12/13 16:12:08;;;;;;;57.67;29.75;;;;;;;6.88;100.00;99796.88;4975977;28;20511;-70
2023/12/13 16:14:33;;;;;;;51.22;28.90;;;;;;;6.89;100.00;99803.88;4978357;28;20042;-70
2023/12/13 16:16:59;;;;;;;50.35;28.00;;;;;;;6.83;100.00;99791.00;4962276;28;20046;-70
2023/12/13 16:19:24;;;;;;;50.13;28.90;;;;;;;6.89;100.00;99802.09;4977977;28;20061;-71
2023/12/13 16:21:49;;;;;;;51.15;28.02;;;;;;;6.88;100.00;99803.03;4967457;28;20046;-70
2023/12/13 16:24:15;;;;;;;42.33;26.40;;;;;;;6.93;100.00;99808.94;4976387;28;20041;-70
2023/12/13 16:26:40;;;;;;;39.53;26.33;;;;;;;6.90;100.00;99809.09;4987406;28;20539;-70
2023/12/13 16:29:06;;;;;;;40.40;26.50;;;;;;;6.89;100.00;99799.44;4965884;28;20046;-70
2023/12/13 16:31:31;;;;;;;42.00;26.52;;;;;;;6.91;100.00;99808.16;4966799;28;20069;-70
2023/12/13 16:33:58;;;;;;;39.63;25.23;;;;;;;6.88;100.00;99812.75;4986840;28;20400;-70
2023/12/13 16:36:24;;;;;;;37.78;25.40;;;;;;;6.85;100.00;99812.91;4966665;28;20046;-70
2023/12/13 16:38:49;;;;;;;34.67;24.17;;;;;;;6.86;100.00;99814.63;4951098;28;20062;-70
2023/12/13 16:41:15;;;;;;;45.15;26.80;;;;;;;6.84;100.00;99824.44;4969177;28;20109;-71
2023/12/13 16:43:40;;;;;;;41.55;26.05;;;;;;;6.83;100.00;99820.94;4978604;28;20474;-70
2023/12/13 16:46:07;;;;;;;46.13;26.10;;;;;;;6.79;100.00;99827.31;4967458;28;20062;-69
2023/12/13 16:48:33;;;;;;;38.72;25.58;;;;;;;6.78;100.00;99836.19;4975977;28;20077;-69
2023/12/13 16:51:01;;;;;;;38.28;25.80;;;;;;;6.76;100.00;99839.84;4959803;28;20035;-69
2023/12/13 16:53:28;;;;;;;39.85;25.50;;;;;;;6.78;100.00;99853.84;4966925;28;20042;-69
2023/12/13 16:55:54;;;;;;;48.92;26.90;;;;;;;6.79;100.00;99856.41;4965808;28;20069;-70
2023/12/13 16:58:20;;;;;;;48.92;26.88;;;;;;;6.72;100.00;99853.19;4968452;28;20230;-69
2023/12/13 17:00:45;;;;;;;45.03;27.40;;;;;;;6.75;100.00;99860.13;4966602;28;20085;-70
2023/12/13 17:03:11;;;;;;;41.30;25.85;;;;;;;6.75;100.00;99865.44;4984218;28;20101;-70
2023/12/13 17:05:36;;;;;;;41.70;26.38;;;;;;;6.73;100.00;99870.81;4972281;28;20064;-70
2023/12/13 17:08:02;;;;;;;46.00;28.02;;;;;;;6.73;100.00;99872.59;4966030;28;20062;-69
2023/12/13 17:10:29;;;;;;;44.03;27.52;;;;;;;6.80;100.00;99868.69;4952587;28;20912;-69
2023/12/13 17:12:55;;;;;;;44.58;28.00;;;;;;;6.82;100.00;99877.41;4972266;28;20078;-70
2023/12/13 17:15:20;;;;;;;44.58;28.05;;;;;;;6.82;100.00;99882.72;4973305;28;20098;-70
2023/12/13 17:17:46;;;;;;;48.97;28.73;;;;;;;6.77;100.00;99881.22;4966718;28;20042;-70
2023/12/13 17:20:13;;;;;;;42.13;27.95;;;;;;;6.74;100.00;99887.53;4983016;28;20432;-70
2023/12/13 17:22:39;;;;;;;46.53;31.50;;;;;;;6.76;100.00;99876.84;4967394;28;20093;-71
2023/12/13 17:25:06;;;;;;;50.75;34.50;;;;;;;6.81;100.00;99896.84;4950900;28;20248;-70
2023/12/13 17:27:33;;;;;;;58.38;33.70;;;;;;;6.80;100.00;99904.88;4965670;28;20066;-68
2023/12/13 17:30:02;;;;;;;62.00;33.80;;;;;;;6.75;100.00;99907.75;4986066;28;20479;-69
2023/12/13 17:32:31;;;;;;;51.95;31.88;;;;;;;6.79;100.00;99919.88;4970732;28;20044;-70
2023/12/13 17:34:56;;;;;;;51.05;32.20;;;;;;;6.78;100.00;99927.91;4977223;28;20045;-71
2023/12/13 17:37:21;;;;;;;55.08;32.42;;;;;;;6.74;100.00;99922.75;4970663;28;20034;-70
2023/12/13 17:39:47;;;;;;;52.15;30.10;;;;;;;6.80;100.00;99928.66;4970758;28;20062;-69
2023/12/13 17:42:12;;;;;;;55.17;33.25;;;;;;;6.71;100.00;99916.75;4955501;28;22496;-70
2023/12/13 17:44:37;;;;;;;50.13;32.72;;;;;;;6.74;100.00;99940.41;4973463;28;20532;-70
2023/12/13 17:47:04;;;;;;;55.92;33.13;;;;;;;6.69;100.00;99939.78;4976657;28;20081;-71
2023/12/13 17:49:31;;;;;;;53.78;31.30;;;;;;;6.67;100.00;99952.22;4999129;28;20038;-71
2023/12/13 17:51:56;;;;;;;50.65;33.88;;;;;;;6.60;100.00;99951.66;4998882;28;20472;-71
2023/12/13 17:54:21;;;;;;;49.08;31.50;;;;;;;6.47;100.00;99951.38;4997550;28;20034;-72
2023/12/13 17:56:47;;;;;;;55.08;33.10;;;;;;;6.41;100.00;99962.28;4983054;28;20045;-70
2023/12/13 17:59:12;;;;;;;54.10;32.70;;;;;;;6.42;100.00;99969.25;4996244;28;20165;-70
2023/12/13 18:01:38;;;;;;;56.75;33.38;;;;;;;6.38;100.00;99970.34;4966315;28;20189;-68
2023/12/13 18:04:03;;;;;;;57.85;35.35;;;;;;;6.35;100.00;99972.25;4982910;28;20042;-70
2023/12/13 18:06:29;;;;;;;61.22;36.50;;;;;;;6.43;100.00;99989.47;4982275;28;20123;-71
2023/12/13 18:08:55;;;;;;;65.70;36.95;;;;;;;6.43;100.00;99981.53;4989748;28;20112;-70
2023/12/13 18:11:20;;;;;;;68.97;37.85;;;;;;;6.48;100.00;99995.41;4984589;28;20185;-71
2023/12/13 18:13:46;;;;;;;63.88;37.78;;;;;;;6.47;100.00;99995.47;4988093;28;20039;-70
2023/12/13 18:16:12;;;;;;;66.63;37.95;;;;;;;6.50;100.00;100000.63;4983335;28;20428;-70
2023/12/13 18:18:38;;;;;;;64.95;38.25;;;;;;;6.49;100.00;100004.22;4976166;28;20507;-70
2023/12/13 18:21:04;;;;;;;70.75;38.72;;;;;;;6.51;100.00;100004.97;4978578;28;20054;-71
2023/12/13 18:23:30;;;;;;;75.80;39.60;;;;;;;6.52;100.00;100013.75;4983684;28;20038;-71
2023/12/13 18:25:56;;;;;;;77.78;39.50;;;;;;;6.44;100.00;100004.44;4982095;28;20038;-70
2023/12/13 18:28:24;;;;;;;72.45;39.33;;;;;;;6.48;100.00;100027.16;4988748;28;20061;-70
2023/12/13 18:30:50;;;;;;;77.75;40.00;;;;;;;6.46;100.00;100029.00;4971662;28;20725;-70
2023/12/13 18:33:16;;;;;;;71.10;38.33;;;;;;;6.44;100.00;100038.78;4975953;28;20042;-71
2023/12/13 18:35:42;;;;;;;73.45;38.45;;;;;;;6.44;100.00;100038.78;4981166;28;20296;-71
2023/12/13 18:38:07;;;;;;;71.90;38.78;;;;;;;6.43;100.00;100044.97;4983136;28;20030;-71
2023/12/13 18:40:33;;;;;;;72.25;39.25;;;;;;;6.43;100.00;100050.28;4978843;28;20038;-70
2023/12/13 18:42:58;;;;;;;70.25;37.35;;;;;;;6.41;100.00;100046.00;4987059;28;20643;-70
2023/12/13 18:45:23;;;;;;;70.40;37.97;;;;;;;6.39;100.00;100045.19;4982098;28;20116;-71
2023/12/13 18:47:49;;;;;;;73.78;37.42;;;;;;;6.34;100.00;100045.41;4978189;28;20034;-71
2023/12/13 18:50:14;;;;;;;62.67;34.75;;;;;;;6.32;100.00;100057.84;4985693;28;20038;-71
2023/12/13 18:52:40;;;;;;;63.75;35.55;;;;;;;6.33;100.00;100075.44;4976066;28;20034;-71
2023/12/13 18:55:10;;;;;;;61.60;33.95;;;;;;;6.32;100.00;100078.16;4983302;28;20050;-70
2023/12/13 18:57:38;;;;;;;60.88;31.95;;;;;;;6.22;100.00;100075.91;4978545;28;20049;-70
2023/12/13 19:00:09;;;;;;;58.90;31.48;;;;;;;6.29;100.00;100089.72;4982347;28;20636;-70
2023/12/13 19:02:35;;;;;;;52.60;29.27;;;;;;;6.26;100.00;100088.97;4982819;28;20054;-72
2023/12/13 19:05:00;;;;;;;43.15;26.05;;;;;;;6.24;100.00;100094.34;4980074;28;20133;-70
2023/12/13 19:07:26;;;;;;;43.90;25.08;;;;;;;6.24;100.00;100102.28;4970885;28;20121;-72
2023/12/13 19:09:51;;;;;;;40.00;23.98;;;;;;;6.17;100.00;100100.81;4981199;28;20046;-70
2023/12/13 19:12:17;;;;;;;36.33;22.38;;;;;;;6.05;100.00;100094.28;4981582;28;20053;-71
2023/12/13 19:14:42;;;;;;;39.75;22.55;;;;;;;6.08;100.00;100104.72;4981663;28;20042;-70
2023/12/13 19:17:08;;;;;;;34.80;21.20;;;;;;;6.03;100.00;100105.88;4961597;28;20038;-70
2023/12/13 19:19:33;;;;;;;32.05;20.52;;;;;;;6.01;100.00;100115.63;4975771;28;20097;-71
2023/12/13 19:21:58;;;;;;;36.17;21.38;;;;;;;6.05;100.00;100126.00;4986555;28;20026;-71
2023/12/13 19:24:24;;;;;;;36.60;21.25;;;;;;;6.01;100.00;100126.19;4985528;28;20031;-72
2023/12/13 19:26:49;;;;;;;33.97;20.58;;;;;;;6.01;100.00;100137.63;4980752;28;20046;-71
2023/12/13 19:29:15;;;;;;;35.55;20.42;;;;;;;6.01;100.00;100136.75;4984083;28;20045;-70
2023/12/13 19:31:41;;;;;;;36.03;21.23;;;;;;;6.01;100.00;100139.41;4988262;28;20042;-71
2023/12/13 19:34:08;;;;;;;40.97;22.23;;;;;;;6.02;100.00;100144.66;4997431;28;20770;-70
2023/12/13 19:36:33;;;;;;;38.90;22.10;;;;;;;6.01;100.00;100142.03;4984757;28;20038;-70
2023/12/13 19:38:58;;;;;;;46.13;23.52;;;;;;;6.01;100.00;100142.03;4987831;28;20031;-71
2023/12/13 19:41:24;;;;;;;42.35;22.73;;;;;;;5.98;100.00;100151.84;4989893;28;20560;-70
2023/12/13 19:43:49;;;;;;;45.22;23.55;;;;;;;6.05;100.00;100164.75;5000662;28;20113;-70
2023/12/13 19:46:14;;;;;;;45.25;24.52;;;;;;;6.05;100.00;100167.41;4987414;28;20200;-71
2023/12/13 19:48:40;;;;;;;45.35;24.27;;;;;;;6.05;100.00;100168.25;4995970;28;20089;-71
2023/12/13 19:51:05;;;;;;;52.90;25.73;;;;;;;6.06;100.00;100172.66;4985777;28;20153;-70
2023/12/13 19:53:31;;;;;;;51.45;25.08;;;;;;;6.04;100.00;100178.91;4972127;28;20659;-71
2023/12/13 19:55:56;;;;;;;50.15;25.85;;;;;;;6.07;100.00;100184.91;4980990;28;20474;-72
2023/12/13 19:58:21;;;;;;;52.83;26.23;;;;;;;6.07;100.00;100189.34;4983908;28;20034;-72
2023/12/13 20:00:47;;;;;;;53.03;27.25;;;;;;;6.07;100.00;100189.34;4983092;28;20030;-71
2023/12/13 20:03:12;;;;;;;58.08;27.58;;;;;;;6.06;100.00;100198.19;4983900;28;20038;-71
2023/12/13 20:05:37;;;;;;;57.63;28.88;;;;;;;6.06;100.00;100195.53;4983100;28;20113;-69
2023/12/13 20:08:03;;;;;;;59.28;28.63;;;;;;;6.07;100.00;100199.91;4985123;28;20034;-70
2023/12/13 20:10:28;;;;;;;63.13;30.08;;;;;;;5.98;100.00;100194.09;4985559;28;20034;-70
2023/12/13 20:12:54;;;;;;;60.20;28.60;;;;;;;6.06;100.00;100207.00;4974433;28;20054;-71
2023/12/13 20:15:20;;;;;;;64.50;31.23;;;;;;;6.04;100.00;100213.25;4982077;28;20054;-70
2023/12/13 20:17:45;;;;;;;66.57;30.60;;;;;;;6.02;100.00;100220.38;4980464;28;20496;-68
2023/12/13 20:20:11;;;;;;;66.35;31.60;;;;;;;5.91;100.00;100212.88;4985048;28;20029;-70
2023/12/13 20:22:37;;;;;;;65.32;32.40;;;;;;;5.97;100.00;100234.63;4975778;28;20042;-72
2023/12/13 20:25:06;;;;;;;70.78;33.60;;;;;;;5.93;100.00;100224.25;4982219;28;20085;-70
2023/12/13 20:27:38;;;;;;;68.68;34.00;;;;;;;5.93;100.00;100246.25;4983259;28;20054;-70
2023/12/13 20:30:05;;;;;;;73.78;34.30;;;;;;;5.87;100.00;100238.56;4966020;28;20038;-70
2023/12/13 20:32:34;;;;;;;73.15;35.30;;;;;;;5.90;100.00;100250.78;4983587;28;20062;-71
2023/12/13 20:35:01;;;;;;;77.63;36.38;;;;;;;5.90;100.00;100258.72;4984588;28;20105;-69
2023/12/13 20:37:27;;;;;;;81.82;37.25;;;;;;;5.84;100.00;100257.16;4983996;28;20661;-69
2023/12/13 20:39:52;;;;;;;78.32;36.92;;;;;;;5.92;100.00;100268.31;4986031;28;20088;-70
2023/12/13 20:42:17;;;;;;;82.85;38.38;;;;;;;5.87;100.00;100266.75;4985968;28;20041;-70
2023/12/13 20:44:43;;;;;;;84.88;38.00;;;;;;;5.89;100.00;100278.09;4988656;28;20027;-70
2023/12/13 20:47:09;;;;;;;88.93;36.72;;;;;;;5.77;100.00;100271.56;5002938;28;20121;-70
2023/12/13 20:49:34;;;;;;;91.65;40.33;;;;;;;5.79;100.00;100276.75;5011332;28;20030;-71
2023/12/13 20:52:00;;;;;;;76.97;36.42;;;;;;;5.85;100.00;100285.31;4994443;28;20611;-70
2023/12/13 20:54:27;;;;;;;83.28;37.20;;;;;;;5.87;100.00;100299.28;4987990;28;20067;-71
2023/12/13 20:56:52;;;;;;;97.45;42.83;;;;;;;5.91;100.00;100294.75;4970656;28;20153;-71
2023/12/13 20:59:18;;;;;;;102.88;42.65;;;;;;;5.93;100.00;100299.06;4973637;28;21172;-70
2023/12/13 21:01:43;;;;;;;111.28;44.28;;;;;;;5.94;100.00;100300.81;4975904;28;20757;-69
2023/12/13 21:04:08;;;;;;;112.28;44.33;;;;;;;5.94;100.00;100303.44;4978062;28;20568;-70
2023/12/13 21:06:34;;;;;;;109.30;44.55;;;;;;;5.98;100.00;100307.69;4976540;28;20065;-70
2023/12/13 21:08:59;;;;;;;111.82;47.63;;;;;;;5.99;100.00;100313.84;4981579;28;20042;-71
2023/12/13 21:11:25;;;;;;;116.78;50.03;;;;;;;5.98;100.00;100323.53;4973713;28;20429;-71
2023/12/13 21:13:51;;;;;;;120.82;51.90;;;;;;;5.98;100.00;100323.53;4977069;28;21381;-69
2023/12/13 21:16:16;;;;;;;123.45;50.92;;;;;;;6.00;100.00;100331.41;4985587;28;20046;-71
2023/12/13 21:18:42;;;;;;;120.72;50.80;;;;;;;6.03;100.00;100336.56;4980769;28;20448;-70
2023/12/13 21:21:07;;;;;;;122.43;50.85;;;;;;;6.04;100.00;100340.91;4974153;28;20034;-70
2023/12/13 21:23:32;;;;;;;133.05;52.65;;;;;;;6.05;100.00;100344.41;4987426;28;20038;-70
2023/12/13 21:25:58;;;;;;;126.45;52.10;;;;;;;6.06;100.00;100346.13;4979502;28;20132;-70
2023/12/13 21:28:23;;;;;;;127.72;50.55;;;;;;;6.01;100.00;100334.88;4962945;28;20298;-71
2023/12/13 21:30:48;;;;;;;135.63;53.00;;;;;;;6.10;100.00;100356.50;4982031;28;20048;-70
2023/12/13 21:33:14;;;;;;;132.65;52.67;;;;;;;6.13;100.00;100358.19;4975441;28;20593;-70
2023/12/13 21:35:40;;;;;;;126.72;53.55;;;;;;;6.10;100.00;100353.00;4984536;28;20038;-70
2023/12/13 21:38:10;;;;;;;133.85;54.17;;;;;;;6.17;100.00;100373.00;4981172;28;20061;-69
2023/12/13 21:40:35;;;;;;;135.43;54.13;;;;;;;6.13;100.00;100366.09;4976903;28;20047;-69
2023/12/13 21:43:02;;;;;;;127.43;52.47;;;;;;;6.21;100.00;100382.50;4976451;28;20075;-70
2023/12/13 21:45:27;;;;;;;131.25;53.15;;;;;;;6.21;100.00;100388.66;4994835;28;20042;-71
2023/12/13 21:47:53;;;;;;;131.90;55.40;;;;;;;6.24;100.00;100392.97;4977146;28;20038;-71
2023/12/13 21:50:18;;;;;;;137.43;53.50;;;;;;;6.26;100.00;100391.13;4975263;28;20047;-70
2023/12/13 21:52:44;;;;;;;134.13;54.80;;;;;;;6.26;100.00;100391.13;4977747;28;20062;-69
2023/12/13 21:55:10;;;;;;;136.20;55.58;;;;;;;6.28;100.00;100399.84;4979497;28;20029;-69
2023/12/13 21:57:35;;;;;;;135.63;55.22;;;;;;;6.27;100.00;100397.25;4969271;28;20052;-70
2023/12/13 22:00:01;;;;;;;131.75;54.83;;;;;;;6.26;100.00;100406.97;4981881;28;20040;-71
2023/12/13 22:02:26;;;;;;;134.43;54.20;;;;;;;6.22;100.00;100403.59;4985601;28;21045;-71
2023/12/13 22:04:51;;;;;;;133.88;55.58;;;;;;;6.25;100.00;100407.91;4977146;28;20050;-69
2023/12/13 22:07:17;;;;;;;132.00;53.80;;;;;;;6.26;100.00;100416.69;4981023;28;20034;-69
2023/12/13 22:09:42;;;;;;;131.35;54.75;;;;;;;6.28;100.00;100420.16;4976738;28;20121;-70
2023/12/13 22:12:07;;;;;;;142.00;57.03;;;;;;;6.30;100.00;100424.44;4983886;28;20088;-70
2023/12/13 22:14:32;;;;;;;134.73;55.55;;;;;;;6.27;100.00;100418.41;4976986;28;20108;-70
2023/12/13 22:16:58;;;;;;;142.10;55.65;;;;;;;6.30;100.00;100431.50;4972939;28;21274;-69
2023/12/13 22:22:05;;;;;;;135.48;57.13;;;;;;;6.28;100.00;100450.06;4983442;28;20038;-71
2023/12/13 22:24:31;;;;;;;140.80;56.45;;;;;;;6.31;100.00;100449.97;4975649;28;20428;-70
2023/12/13 22:26:57;;;;;;;137.30;54.55;;;;;;;6.23;100.00;100444.97;4977932;28;20559;-70
2023/12/13 22:29:22;;;;;;;137.55;55.85;;;;;;;6.31;100.00;100457.00;4982823;28;20054;-69
2023/12/13 22:31:48;;;;;;;127.78;55.15;;;;;;;6.31;100.00;100457.88;4978247;28;20042;-70
2023/12/13 22:34:13;;;;;;;136.00;55.03;;;;;;;6.30;100.00;100465.84;4983151;28;20044;-70
2023/12/13 22:36:39;;;;;;;133.82;54.08;;;;;;;6.31;100.00;100465.81;4983257;28;20104;-69
2023/12/13 22:39:05;;;;;;;137.02;55.75;;;;;;;6.29;100.00;100470.28;4973862;28;20385;-70
2023/12/13 22:41:30;;;;;;;142.10;56.15;;;;;;;6.29;100.00;100474.72;4988788;28;20080;-70
2023/12/13 22:43:55;;;;;;;130.88;55.67;;;;;;;6.23;100.00;100468.75;4986149;28;20064;-70
2023/12/13 22:46:21;;;;;;;143.43;55.60;;;;;;;6.27;100.00;100474.78;4983287;28;20678;-70
2023/12/13 22:48:46;;;;;;;134.43;53.38;;;;;;;6.27;100.00;100492.41;4982774;28;20552;-70
2023/12/13 22:51:12;;;;;;;134.18;53.85;;;;;;;6.26;100.00;100506.53;4980724;28;20038;-69
2023/12/13 22:53:38;;;;;;;130.73;54.33;;;;;;;6.20;100.00;100499.72;4981326;28;20038;-70
2023/12/13 22:56:04;;;;;;;126.00;53.53;;;;;;;6.20;100.00;100503.22;4982531;28;20034;-70
2023/12/13 22:58:32;;;;;;;126.72;52.42;;;;;;;6.13;100.00;100492.94;4983542;28;20096;-69
2023/12/13 23:00:57;;;;;;;131.50;51.17;;;;;;;6.23;100.00;100520.75;4985540;28;20097;-70
2023/12/13 23:03:22;;;;;;;131.32;53.03;;;;;;;6.18;100.00;100525.31;4982387;28;20057;-70
2023/12/13 23:05:48;;;;;;;122.15;50.50;;;;;;;6.22;100.00;100533.09;4983708;28;20046;-69
2023/12/13 23:08:14;;;;;;;131.32;53.47;;;;;;;6.20;100.00;100534.06;4983643;28;20497;-69
2023/12/13 23:10:39;;;;;;;125.72;52.50;;;;;;;6.12;100.00;100515.00;4982958;28;20046;-69
2023/12/13 23:13:04;;;;;;;115.35;49.92;;;;;;;6.21;100.00;100535.78;4962313;28;20046;-70
2023/12/13 23:15:29;;;;;;;128.60;52.22;;;;;;;6.23;100.00;100536.63;4962240;28;20047;-70
2023/12/13 23:17:55;;;;;;;123.78;51.97;;;;;;;6.21;100.00;100541.06;4960788;28;20122;-70